Time;durP1;ratioP1;P1;durP2;ratioP2;P2;SDS_P1;SDS_P2;PMS_P1;PMS_P2;Temp;Humidity;BMP_temperature;BMP_pressure;BME280_temperature;BME280_humidity;BME280_pressure;Samples;Min_cycle;Max_cycle;Signal;HPM_P1;HPM_P2
2023/11/05 00:01:08;;;;;;;3.08;2.22;;;;;;;;;;6202848;28;20060;-96
2023/11/05 00:04:10;;;;;;;3.45;2.03;;;;;;;;;;6225814;28;20050;-96
2023/11/05 00:07:12;;;;;;;2.95;2.00;;;;;;;;;;6207370;28;20084;-96
2023/11/05 00:10:14;;;;;;;2.97;1.98;;;;;;;;;;6205644;28;20052;-96
2023/11/05 00:13:17;;;;;;;2.58;1.75;;;;;;;;;;6225362;28;20084;-95
2023/11/05 00:16:19;;;;;;;3.00;1.58;;;;;;;;;;6223712;28;20053;-95
2023/11/05 00:19:21;;;;;;;5.57;1.67;;;;;;;;;;6222708;28;20058;-96
2023/11/05 00:22:23;;;;;;;2.33;1.40;;;;;;;;;;6223947;28;20134;-96
2023/11/05 00:25:25;;;;;;;2.22;1.40;;;;;;;;;;6221096;28;20045;-96
2023/11/05 00:28:28;;;;;;;2.22;1.42;;;;;;;;;;6192017;28;20054;-96
2023/11/05 00:31:30;;;;;;;1.60;1.10;;;;;;;;;;6224597;28;20056;-94
2023/11/05 00:34:32;;;;;;;2.22;1.30;;;;;;;;;;6209030;28;20053;-96
2023/11/05 00:37:34;;;;;;;3.72;1.35;;;;;;;;;;6226332;28;20053;-96
2023/11/05 00:40:36;;;;;;;1.60;1.00;;;;;;;;;;6225754;28;20049;-96
2023/11/05 00:43:40;;;;;;;1.52;0.95;;;;;;;;;;6226083;28;20050;-96
2023/11/05 00:46:42;;;;;;;;;;;;;;;;;;6225815;28;20050;-96
2023/11/05 00:49:44;;;;;;;1.75;1.00;;;;;;;;;;6225145;28;19926;-94
2023/11/05 00:52:49;;;;;;;1.70;1.15;;;;;;;;;;6222771;28;20125;-96
2023/11/05 00:55:54;;;;;;;1.65;0.85;;;;;;;;;;6224499;28;20061;-96
2023/11/05 00:58:57;;;;;;;2.72;1.10;;;;;;;;;;6207234;28;20064;-96
2023/11/05 01:02:00;;;;;;;2.08;1.10;;;;;;;;;;6205238;28;20072;-96
2023/11/05 01:05:03;;;;;;;2.30;0.85;;;;;;;;;;6227315;28;20091;-96
2023/11/05 01:08:07;;;;;;;1.87;1.13;;;;;;;;;;6197401;28;20041;-96
2023/11/05 01:11:10;;;;;;;1.23;0.90;;;;;;;;;;6225175;28;20073;-96
2023/11/05 01:14:14;;;;;;;1.42;0.73;;;;;;;;;;6206646;28;20054;-96
2023/11/05 01:17:25;;;;;;;1.30;0.88;;;;;;;;;;6223263;28;20116;-96
2023/11/05 01:20:28;;;;;;;3.45;1.05;;;;;;;;;;6223650;28;20076;-96
2023/11/05 01:23:30;;;;;;;2.15;0.98;;;;;;;;;;6200602;28;20068;-96
2023/11/05 01:26:32;;;;;;;2.53;0.95;;;;;;;;;;6226772;28;20060;-95
2023/11/05 01:29:35;;;;;;;1.92;0.88;;;;;;;;;;6221666;28;20041;-96
2023/11/05 01:32:37;;;;;;;1.88;0.80;;;;;;;;;;6221008;28;20057;-96
2023/11/05 01:35:39;;;;;;;1.30;0.88;;;;;;;;;;6221042;28;20057;-96
2023/11/05 01:38:41;;;;;;;1.30;0.80;;;;;;;;;;6220837;28;20046;-96
2023/11/05 01:41:43;;;;;;;1.13;0.70;;;;;;;;;;6219489;28;20046;-96
2023/11/05 01:44:46;;;;;;;1.23;0.70;;;;;;;;;;6208078;28;20049;-96
2023/11/05 01:47:48;;;;;;;1.40;0.80;;;;;;;;;;6225460;28;20121;-96
2023/11/05 01:50:50;;;;;;;1.50;0.80;;;;;;;;;;6222864;28;20235;-96
2023/11/05 01:53:53;;;;;;;1.50;0.80;;;;;;;;;;6217655;28;20050;-95
2023/11/05 01:56:55;;;;;;;2.03;0.80;;;;;;;;;;6226578;28;20225;-94
2023/11/05 01:59:59;;;;;;;0.73;0.52;;;;;;;;;;6224618;28;20068;-96
2023/11/05 02:03:02;;;;;;;0.90;0.50;;;;;;;;;;6250404;28;20053;-96
2023/11/05 02:06:05;;;;;;;1.15;0.70;;;;;;;;;;6247322;28;20219;-94
2023/11/05 02:09:08;;;;;;;1.40;0.70;;;;;;;;;;6230771;28;20054;-96
2023/11/05 02:12:10;;;;;;;0.90;0.50;;;;;;;;;;6246662;28;20124;-96
2023/11/05 02:15:24;;;;;;;1.23;0.60;;;;;;;;;;6244484;28;20088;-96
2023/11/05 02:18:26;;;;;;;1.73;0.90;;;;;;;;;;6234026;28;20053;-96
2023/11/05 02:21:29;;;;;;;1.33;0.70;;;;;;;;;;6246755;28;20050;-96
2023/11/05 02:24:32;;;;;;;1.65;0.70;;;;;;;;;;6251678;28;20073;-96
2023/11/05 02:27:34;;;;;;;1.52;0.80;;;;;;;;;;6238338;28;20045;-96
2023/11/05 02:30:36;;;;;;;1.30;0.70;;;;;;;;;;6246223;28;20049;-96
2023/11/05 02:33:42;;;;;;;1.40;0.80;;;;;;;;;;6246951;28;20293;-96
2023/11/05 02:36:45;;;;;;;2.47;0.70;;;;;;;;;;6249768;28;20053;-96
2023/11/05 02:39:48;;;;;;;1.40;0.80;;;;;;;;;;6249066;28;20128;-96
2023/11/05 02:42:50;;;;;;;1.48;0.90;;;;;;;;;;6234795;28;20289;-96
2023/11/05 02:45:52;;;;;;;1.08;0.82;;;;;;;;;;6235582;28;20348;-96
2023/11/05 02:48:54;;;;;;;3.13;1.08;;;;;;;;;;6234760;28;20053;-96
2023/11/05 02:51:56;;;;;;;1.88;0.90;;;;;;;;;;6228648;28;20095;-96
2023/11/05 02:55:00;;;;;;;1.98;0.68;;;;;;;;;;6249629;28;20068;-96
2023/11/05 02:58:03;;;;;;;1.05;0.75;;;;;;;;;;6208012;28;20049;-96
2023/11/05 03:01:10;;;;;;;1.50;0.93;;;;;;;;;;6215669;28;20175;-96
2023/11/05 03:04:18;;;;;;;2.53;0.90;;;;;;;;;;6218476;28;20041;-96
2023/11/05 03:07:20;;;;;;;1.70;0.90;;;;;;;;;;6230854;28;20101;-96
2023/11/05 03:10:23;;;;;;;2.75;0.80;;;;;;;;;;6244469;28;20053;-96
2023/11/05 03:13:27;;;;;;;2.08;0.95;;;;;;;;;;6220083;28;20113;-96
2023/11/05 03:16:37;;;;;;;1.15;0.60;;;;;;;;;;6210374;28;20046;-96
2023/11/05 03:23:27;;;;;;;1.10;0.60;;;;;;;;;;6238148;28;20160;-96
2023/11/05 03:26:31;;;;;;;1.52;0.80;;;;;;;;;;6243371;28;20057;-96
2023/11/05 03:29:33;;;;;;;1.10;0.50;;;;;;;;;;6231375;28;20064;-96
2023/11/05 03:32:44;;;;;;;1.33;0.70;;;;;;;;;;6232965;28;20100;-96
2023/11/05 03:35:46;;;;;;;0.80;0.60;;;;;;;;;;6235464;28;20061;-96
2023/11/05 03:38:54;;;;;;;2.38;0.60;;;;;;;;;;6357758;22;20044;-95
2023/11/05 03:48:24;;;;;;;0.98;0.50;;;;;;;;;;6308492;22;20322;-96
2023/11/05 03:51:28;;;;;;;1.02;0.60;;;;;;;;;;6225181;28;20053;-96
2023/11/05 03:54:43;;;;;;;1.05;0.77;;;;;;;;;;6256866;28;20419;-96
2023/11/05 04:26:09;;;;;;;4.25;2.03;;;;;;;;;;5989888;29;20074;-96
2023/11/05 04:40:01;;;;;;;2.27;1.70;;;;;;;;;;6113184;29;20043;-96
2023/11/05 04:47:17;;;;;;;2.42;1.70;;;;;;;;;;6107812;29;20048;-96
2023/11/05 05:02:08;;;;;;;4.00;2.92;;;;;;;;;;6181537;28;20047;-96
2023/11/05 05:37:39;;;;;;;4.93;3.45;;;;;;;;;;5916367;29;20044;-96
2023/11/05 05:44:07;;;;;;;5.40;3.70;;;;;;;;;;5957546;29;20064;-96
2023/11/05 05:51:01;;;;;;;4.90;3.88;;;;;;;;;;6070115;29;20053;-96
2023/11/05 05:54:21;;;;;;;5.85;3.83;;;;;;;;;;6043672;29;20388;-96
2023/11/05 06:11:11;;;;;;;8.07;4.55;;;;;;;;;;6193706;28;20061;-96
2023/11/05 06:17:47;;;;;;;6.43;4.40;;;;;;;;;;6188928;28;20046;-96
2023/11/05 06:27:55;;;;;;;6.45;4.40;;;;;;;;;;6146066;29;20051;-96
2023/11/05 06:49:03;;;;;;;5.75;4.07;;;;;;;;;;6092864;29;20048;-96
2023/11/05 06:52:05;;;;;;;4.97;3.65;;;;;;;;;;6104696;29;20131;-96
2023/11/05 06:59:41;;;;;;;5.72;3.45;;;;;;;;;;6098089;29;20890;-96
2023/11/05 07:02:48;;;;;;;5.07;3.83;;;;;;;;;;6085692;29;20049;-96
2023/11/05 07:13:34;;;;;;;7.10;3.50;;;;;;;;;;6031623;29;20076;-96
2023/11/05 07:16:36;;;;;;;5.10;3.40;;;;;;;;;;6059815;29;20072;-96
2023/11/05 07:19:38;;;;;;;5.05;3.50;;;;;;;;;;6101307;29;20062;-96
2023/11/05 07:26:17;;;;;;;3.42;2.95;;;;;;;;;;6106913;29;20045;-96
2023/11/05 07:29:21;;;;;;;7.28;3.08;;;;;;;;;;6074251;29;20233;-96
2023/11/05 07:32:22;;;;;;;3.92;2.60;;;;;;;;;;6087053;29;20093;-96
2023/11/05 07:35:26;;;;;;;4.10;2.42;;;;;;;;;;6144744;28;20067;-96
2023/11/05 07:38:28;;;;;;;3.67;2.50;;;;;;;;;;6207595;28;20138;-96
2023/11/05 07:41:30;;;;;;;3.65;2.80;;;;;;;;;;6210687;28;20310;-96
2023/11/05 07:44:34;;;;;;;4.68;2.28;;;;;;;;;;6206008;28;20050;-96
2023/11/05 07:47:39;;;;;;;3.28;2.00;;;;;;;;;;6204744;28;20062;-96
2023/11/05 07:50:41;;;;;;;3.30;2.08;;;;;;;;;;6205716;28;20104;-96
2023/11/05 07:53:43;;;;;;;3.75;2.33;;;;;;;;;;6208900;28;20232;-94
2023/11/05 07:56:45;;;;;;;2.10;1.58;;;;;;;;;;6208702;28;20058;-96
2023/11/05 07:59:48;;;;;;;3.35;1.98;;;;;;;;;;6209110;28;20092;-96
2023/11/05 08:02:50;;;;;;;3.03;1.80;;;;;;;;;;6200320;28;20050;-96
2023/11/05 08:05:55;;;;;;;2.63;1.80;;;;;;;;;;6213306;28;20054;-96
2023/11/05 08:08:57;;;;;;;1.85;1.42;;;;;;;;;;6212967;28;20046;-96
2023/11/05 08:11:59;;;;;;;1.98;1.58;;;;;;;;;;6212485;28;20073;-96
2023/11/05 08:18:23;;;;;;;2.95;1.90;;;;;;;;;;6160828;28;20067;-96
2023/11/05 08:21:25;;;;;;;2.25;1.58;;;;;;;;;;6159511;28;20065;-96
2023/11/05 08:24:27;;;;;;;4.45;2.00;;;;;;;;;;6161539;28;20047;-95
2023/11/05 08:27:30;;;;;;;2.25;1.80;;;;;;;;;;6158030;28;20059;-96
2023/11/05 08:30:33;;;;;;;1.92;1.50;;;;;;;;;;6144248;29;20117;-95
2023/11/05 08:33:35;;;;;;;2.95;1.83;;;;;;;;;;6160566;28;20074;-96
2023/11/05 08:39:42;;;;;;;1.85;1.30;;;;;;;;;;6230410;28;20053;-96
2023/11/05 08:42:44;;;;;;;3.22;1.20;;;;;;;;;;6220692;28;20045;-96
2023/11/05 08:45:48;;;;;;;2.30;1.50;;;;;;;;;;6232368;28;20122;-96
2023/11/05 08:48:50;;;;;;;2.50;1.10;;;;;;;;;;6229818;28;20068;-96
2023/11/05 08:51:53;;;;;;;1.10;0.82;;;;;;;;;;6211694;28;20053;-96
2023/11/05 08:54:55;;;;;;;1.37;1.10;;;;;;;;;;6216932;28;20421;-96
2023/11/05 08:57:58;;;;;;;2.25;1.20;;;;;;;;;;6232339;28;20073;-96
2023/11/05 09:01:21;;;;;;;2.15;1.00;;;;;;;;;;6212999;28;20337;-96
2023/11/05 09:04:23;;;;;;;2.03;1.25;;;;;;;;;;6231952;28;20360;-96
2023/11/05 09:07:25;;;;;;;1.63;1.02;;;;;;;;;;6231242;28;20054;-96
2023/11/05 09:10:30;;;;;;;1.35;0.88;;;;;;;;;;6231630;28;20045;-94
2023/11/05 09:13:32;;;;;;;1.95;1.17;;;;;;;;;;6232154;28;20076;-96
2023/11/05 09:16:35;;;;;;;1.20;0.73;;;;;;;;;;6234671;28;20348;-91
2023/11/05 09:19:37;;;;;;;1.15;0.85;;;;;;;;;;6228411;28;20045;-95
2023/11/05 09:22:39;;;;;;;2.35;1.30;;;;;;;;;;6232286;28;20118;-92
2023/11/05 09:25:41;;;;;;;1.20;0.90;;;;;;;;;;6229672;28;20060;-93
2023/11/05 09:28:43;;;;;;;4.25;1.00;;;;;;;;;;6233654;28;20325;-93
2023/11/05 09:31:47;;;;;;;2.17;1.05;;;;;;;;;;6227081;28;20996;-91
2023/11/05 09:34:50;;;;;;;1.23;0.68;;;;;;;;;;6228836;28;20069;-92
2023/11/05 09:37:51;;;;;;;1.83;0.90;;;;;;;;;;6228193;28;20228;-92
2023/11/05 09:40:54;;;;;;;1.23;0.85;;;;;;;;;;6230207;28;20053;-92
2023/11/05 09:43:55;;;;;;;1.75;0.80;;;;;;;;;;6231193;28;20050;-92
2023/11/05 09:47:00;;;;;;;1.48;0.60;;;;;;;;;;6232134;28;20057;-91
2023/11/05 09:50:03;;;;;;;1.60;0.80;;;;;;;;;;6227008;28;20312;-91
2023/11/05 09:53:05;;;;;;;1.45;0.70;;;;;;;;;;6231457;28;20117;-91
2023/11/05 09:56:08;;;;;;;1.20;0.60;;;;;;;;;;6231054;28;20342;-93
2023/11/05 09:59:10;;;;;;;1.27;0.80;;;;;;;;;;6234137;28;20066;-96
2023/11/05 10:02:14;;;;;;;1.70;0.55;;;;;;;;;;6230480;28;20058;-96
2023/11/05 10:05:16;;;;;;;0.98;0.73;;;;;;;;;;6228402;28;20052;-96
2023/11/05 10:08:18;;;;;;;1.80;0.82;;;;;;;;;;6234316;28;20046;-96
2023/11/05 10:11:20;;;;;;;1.30;0.70;;;;;;;;;;6228432;28;20069;-96
2023/11/05 10:14:22;;;;;;;1.33;0.90;;;;;;;;;;6229915;28;20063;-95
2023/11/05 10:17:27;;;;;;;1.35;0.70;;;;;;;;;;6232885;28;20065;-95
2023/11/05 10:23:54;;;;;;;1.05;0.68;;;;;;;;;;6215223;28;20144;-96
2023/11/05 10:26:56;;;;;;;1.13;0.63;;;;;;;;;;6229464;28;21499;-96
2023/11/05 10:29:59;;;;;;;3.00;0.60;;;;;;;;;;6228329;28;20083;-96
2023/11/05 10:33:02;;;;;;;1.30;0.70;;;;;;;;;;6225800;28;20122;-96
2023/11/05 10:36:06;;;;;;;1.42;0.68;;;;;;;;;;6232810;28;20091;-95
2023/11/05 10:39:10;;;;;;;1.25;0.70;;;;;;;;;;6229625;28;20056;-96
2023/11/05 10:42:14;;;;;;;2.67;0.82;;;;;;;;;;6230117;28;20073;-96
2023/11/05 10:45:17;;;;;;;0.90;0.50;;;;;;;;;;6229546;28;20341;-96
2023/11/05 10:48:21;;;;;;;3.60;0.70;;;;;;;;;;6228047;28;20050;-96
2023/11/05 10:51:43;;;;;;;1.10;0.60;;;;;;;;;;6212960;28;20615;-96
2023/11/05 10:55:06;;;;;;;1.70;0.90;;;;;;;;;;6232488;28;20050;-96
2023/11/05 10:58:10;;;;;;;1.33;0.70;;;;;;;;;;6202631;28;20424;-96
2023/11/05 11:04:33;;;;;;;1.00;0.50;;;;;;;;;;6208016;28;20061;-96
2023/11/05 11:11:09;;;;;;;1.08;0.50;;;;;;;;;;6215426;28;20378;-96
2023/11/05 11:14:12;;;;;;;1.42;0.68;;;;;;;;;;6205562;28;20233;-96
2023/11/05 11:17:16;;;;;;;1.95;0.73;;;;;;;;;;6228684;28;20057;-96
2023/11/05 11:20:24;;;;;;;1.08;0.70;;;;;;;;;;6231335;28;20060;-96
2023/11/05 11:23:27;;;;;;;1.27;0.82;;;;;;;;;;6231938;28;20067;-96
2023/11/05 11:26:30;;;;;;;71.40;43.63;;;;;;;;;;6233727;28;20064;-90
2023/11/05 11:29:32;;;;;;;66.35;35.03;;;;;;;;;;6228579;28;20060;-92
2023/11/05 11:32:35;;;;;;;10.37;5.50;;;;;;;;;;6230461;28;20053;-95
2023/11/05 11:35:39;;;;;;;2.08;0.90;;;;;;;;;;6230657;28;20436;-95
2023/11/05 11:38:41;;;;;;;1.30;0.77;;;;;;;;;;6228521;28;20054;-96
2023/11/05 11:41:47;;;;;;;3.22;0.73;;;;;;;;;;6233890;28;20076;-96
2023/11/05 11:44:50;;;;;;;1.42;0.70;;;;;;;;;;6233425;28;20097;-96
2023/11/05 11:47:52;;;;;;;0.73;0.55;;;;;;;;;;6224216;28;20054;-96
2023/11/05 11:50:59;;;;;;;0.95;0.60;;;;;;;;;;6236464;28;20114;-95
2023/11/05 11:54:01;;;;;;;1.00;0.80;;;;;;;;;;6234209;28;20096;-96
2023/11/05 11:57:04;;;;;;;0.57;0.47;;;;;;;;;;6237301;28;20067;-96
2023/11/05 12:00:10;;;;;;;1.30;0.53;;;;;;;;;;6234764;28;20050;-96
2023/11/05 12:03:13;;;;;;;0.95;0.70;;;;;;;;;;6233051;28;20081;-96
2023/11/05 12:06:16;;;;;;;1.17;0.60;;;;;;;;;;6234105;28;20067;-96
2023/11/05 12:09:24;;;;;;;1.17;0.55;;;;;;;;;;6234200;28;20061;-95
2023/11/05 12:12:26;;;;;;;0.60;0.52;;;;;;;;;;6231894;28;20049;-93
2023/11/05 12:15:28;;;;;;;0.57;0.50;;;;;;;;;;6229150;28;20053;-96
2023/11/05 12:18:31;;;;;;;2.75;0.85;;;;;;;;;;6238101;28;20273;-96
2023/11/05 12:24:53;;;;;;;2.85;0.68;;;;;;;;;;6205114;28;20061;-96
2023/11/05 12:27:56;;;;;;;1.38;0.70;;;;;;;;;;6212701;28;20066;-94
2023/11/05 12:30:58;;;;;;;1.08;0.63;;;;;;;;;;6235171;28;20341;-96
2023/11/05 12:34:00;;;;;;;1.20;0.60;;;;;;;;;;6231358;28;20072;-96
2023/11/05 12:40:20;;;;;;;29.10;19.45;;;;;;;;;;6207330;28;20160;-92
2023/11/05 12:43:23;;;;;;;10.68;5.72;;;;;;;;;;6233493;28;21034;-93
2023/11/05 12:46:26;;;;;;;2.40;1.50;;;;;;;;;;6233637;28;20061;-96
2023/11/05 12:49:29;;;;;;;1.30;0.88;;;;;;;;;;6232487;28;20050;-95
2023/11/05 12:52:32;;;;;;;1.58;0.88;;;;;;;;;;6231526;28;20068;-95
2023/11/05 12:55:34;;;;;;;;;;;;;;;;;;6231180;28;20101;-96
2023/11/05 12:58:38;;;;;;;3.08;0.90;;;;;;;;;;6219896;28;19925;-95
2023/11/05 13:01:40;;;;;;;1.38;0.68;;;;;;;;;;6223071;28;20058;-95
2023/11/05 13:04:44;;;;;;;1.20;0.80;;;;;;;;;;6230028;28;20041;-96
2023/11/05 13:07:58;;;;;;;1.65;0.88;;;;;;;;;;6228347;28;20054;-96
2023/11/05 13:11:21;;;;;;;1.92;0.80;;;;;;;;;;6231845;28;20046;-96
2023/11/05 13:14:23;;;;;;;3.30;1.10;;;;;;;;;;6230405;28;20050;-95
2023/11/05 13:17:24;;;;;;;2.15;0.93;;;;;;;;;;6233328;28;20057;-96
2023/11/05 13:20:26;;;;;;;1.33;1.00;;;;;;;;;;6233841;28;20084;-96
2023/11/05 13:30:16;;;;;;;1.83;0.90;;;;;;;;;;6190593;28;20058;-96
2023/11/05 13:33:43;;;;;;;2.08;1.13;;;;;;;;;;6236219;28;20045;-94
2023/11/05 13:40:16;;;;;;;2.85;0.88;;;;;;;;;;6207126;22;20053;-91
2023/11/05 13:43:18;;;;;;;1.67;1.25;;;;;;;;;;6247578;28;20061;-90
2023/11/05 13:46:19;;;;;;;3.53;1.20;;;;;;;;;;6255159;28;20057;-84
2023/11/05 13:49:21;;;;;;;2.05;1.10;;;;;;;;;;6249467;28;20055;-92
2023/11/05 13:52:23;;;;;;;1.60;1.00;;;;;;;;;;6253478;28;20072;-91
2023/11/05 13:55:26;;;;;;;1.88;1.00;;;;;;;;;;6238299;28;20056;-90
2023/11/05 13:58:42;;;;;;;1.83;1.00;;;;;;;;;;6230096;28;20056;-91
2023/11/05 14:01:44;;;;;;;2.53;0.95;;;;;;;;;;6230367;28;20042;-86
2023/11/05 14:04:46;;;;;;;1.65;1.10;;;;;;;;;;6230513;28;20109;-91
2023/11/05 14:07:54;;;;;;;1.60;0.85;;;;;;;;;;6230629;28;20045;-88
2023/11/05 14:11:01;;;;;;;1.42;1.00;;;;;;;;;;6231227;28;20156;-92
2023/11/05 14:14:07;;;;;;;1.67;0.70;;;;;;;;;;6231021;28;20057;-91
2023/11/05 14:17:09;;;;;;;1.83;1.08;;;;;;;;;;6231677;28;20055;-91
2023/11/05 14:20:12;;;;;;;3.50;0.80;;;;;;;;;;6238748;28;20057;-90
2023/11/05 14:23:22;;;;;;;7.80;1.27;;;;;;;;;;6237725;28;20275;-90
2023/11/05 14:26:25;;;;;;;1.45;1.08;;;;;;;;;;6231717;28;20080;-93
2023/11/05 14:29:27;;;;;;;1.80;1.02;;;;;;;;;;6230285;28;20058;-93
2023/11/05 14:32:30;;;;;;;2.80;0.90;;;;;;;;;;6231368;28;20057;-90
2023/11/05 14:35:32;;;;;;;2.03;0.90;;;;;;;;;;6229282;28;20046;-90
2023/11/05 14:38:34;;;;;;;1.60;1.00;;;;;;;;;;6228335;28;20061;-90
2023/11/05 14:41:38;;;;;;;2.22;1.20;;;;;;;;;;6227780;28;20345;-92
2023/11/05 14:44:43;;;;;;;1.77;0.80;;;;;;;;;;6229103;28;20065;-91
2023/11/05 14:47:52;;;;;;;1.98;1.00;;;;;;;;;;6230453;28;20058;-91
2023/11/05 14:50:55;;;;;;;1.35;0.80;;;;;;;;;;6232522;28;20072;-91
2023/11/05 14:53:57;;;;;;;1.70;0.83;;;;;;;;;;6231014;28;20097;-91
2023/11/05 14:57:01;;;;;;;3.28;1.10;;;;;;;;;;6230358;28;20064;-92
2023/11/05 15:00:10;;;;;;;1.10;0.77;;;;;;;;;;6230720;28;20106;-93
2023/11/05 15:03:12;;;;;;;1.35;0.68;;;;;;;;;;6230653;28;20054;-91
2023/11/05 15:06:23;;;;;;;10.88;5.57;;;;;;;;;;6232572;28;20801;-92
2023/11/05 15:10:00;;;;;;;3.33;1.88;;;;;;;;;;6230401;28;20058;-90
2023/11/05 15:13:08;;;;;;;4.28;2.50;;;;;;;;;;6228945;28;20054;-90
2023/11/05 15:16:17;;;;;;;3.08;1.55;;;;;;;;;;6235187;28;20047;-89
2023/11/05 15:19:19;;;;;;;1.50;0.90;;;;;;;;;;6237552;28;20061;-92
2023/11/05 15:22:23;;;;;;;3.88;1.02;;;;;;;;;;6214336;28;20065;-92
2023/11/05 15:25:25;;;;;;;1.48;0.82;;;;;;;;;;6230662;28;20356;-92
2023/11/05 15:28:29;;;;;;;1.83;0.70;;;;;;;;;;6230452;28;20050;-91
2023/11/05 15:31:31;;;;;;;;;;;;;;;;;;6234029;28;20557;-90
2023/11/05 15:34:33;;;;;;;1.10;0.85;;;;;;;;;;6235606;28;19944;-92
2023/11/05 15:37:38;;;;;;;1.90;1.02;;;;;;;;;;6233027;28;20049;-88
2023/11/05 15:40:43;;;;;;;2.38;1.00;;;;;;;;;;6257012;28;20033;-91
2023/11/05 15:43:47;;;;;;;3.45;0.95;;;;;;;;;;6229659;28;20042;-91
2023/11/05 15:46:49;;;;;;;1.80;0.80;;;;;;;;;;6231464;28;20046;-88
2023/11/05 15:49:52;;;;;;;2.10;0.90;;;;;;;;;;6241564;28;20101;-86
2023/11/05 15:52:55;;;;;;;2.53;1.38;;;;;;;;;;6273473;22;20044;-96
2023/11/05 15:56:02;;;;;;;2.05;0.88;;;;;;;;;;6222825;28;20088;-96
2023/11/05 16:02:29;;;;;;;3.58;1.05;;;;;;;;;;6194050;28;20132;-96
2023/11/05 16:05:32;;;;;;;3.35;0.90;;;;;;;;;;6220963;28;20325;-96
2023/11/05 16:08:55;;;;;;;1.90;1.00;;;;;;;;;;6202551;28;20050;-96
2023/11/05 16:12:06;;;;;;;1.93;0.93;;;;;;;;;;6217688;28;20104;-96
2023/11/05 16:15:14;;;;;;;5.13;0.95;;;;;;;;;;6224151;28;20899;-93
2023/11/05 16:18:16;;;;;;;2.33;0.90;;;;;;;;;;6217845;28;20459;-96
2023/11/05 16:21:20;;;;;;;2.88;1.35;;;;;;;;;;6227550;28;20070;-96
2023/11/05 16:24:32;;;;;;;2.80;1.25;;;;;;;;;;6221640;28;20364;-96
2023/11/05 16:27:37;;;;;;;4.45;1.35;;;;;;;;;;6221302;28;20050;-94
2023/11/05 16:30:40;;;;;;;2.40;1.20;;;;;;;;;;6220846;28;20053;-96
2023/11/05 16:33:46;;;;;;;1.83;1.10;;;;;;;;;;6210489;28;20050;-96
2023/11/05 16:36:53;;;;;;;1.65;0.90;;;;;;;;;;6221336;28;20109;-96
2023/11/05 16:39:54;;;;;;;3.17;1.10;;;;;;;;;;6221413;28;20069;-95
2023/11/05 16:42:56;;;;;;;1.77;1.15;;;;;;;;;;6222416;28;20049;-96
2023/11/05 16:46:03;;;;;;;2.08;1.50;;;;;;;;;;6215124;28;20342;-96
2023/11/05 16:49:10;;;;;;;2.42;1.33;;;;;;;;;;6222638;28;20246;-96
2023/11/05 16:52:18;;;;;;;2.50;1.30;;;;;;;;;;6220491;28;20046;-94
2023/11/05 16:55:20;;;;;;;2.85;1.50;;;;;;;;;;6223068;28;20309;-96
2023/11/05 16:58:41;;;;;;;2.83;1.60;;;;;;;;;;6227148;28;20417;-96
2023/11/05 17:02:03;;;;;;;6.00;3.20;;;;;;;;;;6218479;28;20154;-96
2023/11/05 17:05:10;;;;;;;3.45;1.90;;;;;;;;;;6228227;28;20123;-96
2023/11/05 17:08:24;;;;;;;2.50;1.35;;;;;;;;;;6227508;28;20080;-96
2023/11/05 17:11:26;;;;;;;2.97;1.55;;;;;;;;;;6224232;28;20227;-96
2023/11/05 17:14:28;;;;;;;3.60;1.70;;;;;;;;;;6231754;28;20058;-95
2023/11/05 17:17:34;;;;;;;3.08;2.03;;;;;;;;;;6230537;28;20381;-96
2023/11/05 17:20:36;;;;;;;4.20;1.65;;;;;;;;;;6231073;28;20793;-95
2023/11/05 17:23:40;;;;;;;4.93;1.52;;;;;;;;;;6224686;28;20057;-96
2023/11/05 17:26:47;;;;;;;2.97;1.70;;;;;;;;;;6226754;28;20061;-95
2023/11/05 17:29:49;;;;;;;3.40;2.00;;;;;;;;;;6213625;28;20073;-94
2023/11/05 17:32:57;;;;;;;2.28;1.73;;;;;;;;;;6225639;28;20330;-96
2023/11/05 17:35:59;;;;;;;3.72;1.92;;;;;;;;;;6203898;28;20053;-93
2023/11/05 17:39:02;;;;;;;3.00;1.85;;;;;;;;;;6224446;28;20049;-96
2023/11/05 17:42:07;;;;;;;3.25;1.88;;;;;;;;;;6223036;28;20080;-96
2023/11/05 17:45:10;;;;;;;3.13;1.90;;;;;;;;;;6220813;28;20089;-96
2023/11/05 17:51:48;;;;;;;4.50;1.85;;;;;;;;;;6210281;28;20054;-96
2023/11/05 17:54:52;;;;;;;3.10;2.00;;;;;;;;;;6208607;28;20350;-96
2023/11/05 17:57:54;;;;;;;3.40;1.92;;;;;;;;;;6192173;28;20096;-96
2023/11/05 18:00:57;;;;;;;3.47;2.10;;;;;;;;;;6214657;28;20137;-96
2023/11/05 18:04:02;;;;;;;4.65;2.40;;;;;;;;;;6216223;28;20113;-96
2023/11/05 18:07:05;;;;;;;3.10;1.90;;;;;;;;;;6226309;28;20069;-96
2023/11/05 18:10:12;;;;;;;3.63;2.03;;;;;;;;;;6221119;28;20114;-96
2023/11/05 18:13:16;;;;;;;4.10;2.20;;;;;;;;;;6223966;28;20120;-95
2023/11/05 18:16:20;;;;;;;4.72;2.90;;;;;;;;;;6227013;28;20231;-93
2023/11/05 18:22:43;;;;;;;5.20;2.90;;;;;;;;;;6225651;28;20038;-96
2023/11/05 18:54:14;;;;;;;3.53;2.47;;;;;;;;;;6209149;28;20053;-96
2023/11/05 18:57:20;;;;;;;3.92;2.63;;;;;;;;;;6229925;28;20054;-96
2023/11/05 19:03:57;;;;;;;3.92;2.45;;;;;;;;;;6120891;28;20368;-96
2023/11/05 19:13:42;;;;;;;4.18;3.00;;;;;;;;;;6220580;28;20045;-96
2023/11/05 19:16:48;;;;;;;4.53;2.90;;;;;;;;;;6223172;28;20054;-96
2023/11/05 19:28:01;;;;;;;8.00;3.60;;;;;;;;;;6155857;28;20060;-96
2023/11/05 19:34:20;;;;;;;7.47;3.30;;;;;;;;;;6118828;28;20044;-96
2023/11/05 19:37:21;;;;;;;5.07;3.05;;;;;;;;;;6144370;28;20353;-96
2023/11/05 19:43:51;;;;;;;5.00;3.20;;;;;;;;;;6138110;28;20134;-96
2023/11/05 19:46:54;;;;;;;6.85;3.53;;;;;;;;;;6149563;28;20059;-96
2023/11/05 19:50:18;;;;;;;4.75;2.90;;;;;;;;;;6141914;28;20363;-96
2023/11/05 19:53:19;;;;;;;;;;;;;;;;;;6131219;28;20059;-96
2023/11/05 19:59:48;;;;;;;7.03;2.97;;;;;;;;;;6207071;28;20211;-96
2023/11/05 20:03:15;;;;;;;4.75;2.80;;;;;;;;;;6225309;28;20258;-96
2023/11/05 20:06:18;;;;;;;4.72;2.95;;;;;;;;;;6205100;28;20069;-96
2023/11/05 20:09:21;;;;;;;4.90;2.92;;;;;;;;;;6200215;28;20050;-96
2023/11/05 20:12:24;;;;;;;4.20;2.85;;;;;;;;;;6229483;28;20117;-96
2023/11/05 20:15:28;;;;;;;5.03;3.05;;;;;;;;;;6210091;28;20050;-96
2023/11/05 20:18:30;;;;;;;4.93;2.80;;;;;;;;;;6224656;28;20074;-96
2023/11/05 20:21:33;;;;;;;6.20;3.13;;;;;;;;;;6213847;28;20110;-96
2023/11/05 20:24:35;;;;;;;6.90;3.22;;;;;;;;;;6225654;28;20049;-93
2023/11/05 20:30:58;;;;;;;5.00;3.42;;;;;;;;;;6205515;28;20072;-96
2023/11/05 20:34:06;;;;;;;5.32;3.40;;;;;;;;;;6183071;28;20385;-95
2023/11/05 20:37:11;;;;;;;4.18;3.20;;;;;;;;;;6202348;28;20365;-96
2023/11/05 20:40:33;;;;;;;4.90;2.72;;;;;;;;;;6206781;28;20207;-96
2023/11/05 20:43:37;;;;;;;4.30;3.00;;;;;;;;;;6225467;28;20049;-96
2023/11/05 20:46:42;;;;;;;4.65;3.05;;;;;;;;;;6227100;28;20242;-96
2023/11/05 20:49:45;;;;;;;5.70;3.38;;;;;;;;;;6225808;28;20064;-96
2023/11/05 20:52:47;;;;;;;3.75;2.85;;;;;;;;;;6224666;28;20053;-96
2023/11/05 20:55:49;;;;;;;4.20;3.08;;;;;;;;;;6223981;28;20389;-96
2023/11/05 20:58:53;;;;;;;4.95;2.92;;;;;;;;;;6228595;28;20054;-96
2023/11/05 21:01:54;;;;;;;5.20;3.30;;;;;;;;;;6209053;28;20074;-96
2023/11/05 21:04:58;;;;;;;4.30;3.20;;;;;;;;;;6224549;28;20062;-96
2023/11/05 21:08:00;;;;;;;16.58;7.97;;;;;;;;;;6208985;28;20362;-96
2023/11/05 21:14:22;;;;;;;7.05;3.40;;;;;;;;;;6202694;28;20049;-96
2023/11/05 21:17:24;;;;;;;5.32;3.58;;;;;;;;;;6224930;28;20338;-96
2023/11/05 21:20:30;;;;;;;5.68;3.58;;;;;;;;;;6210792;28;20058;-96
2023/11/05 21:23:32;;;;;;;4.82;3.40;;;;;;;;;;6208621;28;20314;-96
2023/11/05 21:26:37;;;;;;;5.35;3.47;;;;;;;;;;6223034;28;20050;-96
2023/11/05 21:29:40;;;;;;;4.93;3.35;;;;;;;;;;6225230;28;20061;-96
2023/11/05 21:32:43;;;;;;;5.53;3.30;;;;;;;;;;6226819;28;20117;-96
2023/11/05 21:35:44;;;;;;;7.68;3.35;;;;;;;;;;6224275;28;20050;-96
2023/11/05 21:38:46;;;;;;;6.07;3.70;;;;;;;;;;6222311;28;20116;-96
2023/11/05 21:41:48;;;;;;;5.43;3.50;;;;;;;;;;6221361;28;20088;-96
2023/11/05 21:44:52;;;;;;;5.85;3.63;;;;;;;;;;6223423;28;20241;-95
2023/11/05 21:47:54;;;;;;;5.47;3.13;;;;;;;;;;6222941;28;20062;-96
2023/11/05 22:13:10;;;;;;;5.13;3.25;;;;;;;;;;5999295;29;20050;-96
2023/11/05 22:16:47;;;;;;;4.20;2.75;;;;;;;;;;5927997;29;20057;-96
2023/11/05 22:30:28;;;;;;;5.85;3.30;;;;;;;;;;5987819;29;20038;-96
2023/11/05 22:33:32;;;;;;;4.93;3.03;;;;;;;;;;6018887;29;20051;-96
2023/11/05 22:37:04;;;;;;;4.18;3.08;;;;;;;;;;6064412;29;20064;-96
2023/11/05 22:54:48;;;;;;;4.32;2.88;;;;;;;;;;6124045;29;20055;-95
2023/11/05 23:05:14;;;;;;;5.93;3.42;;;;;;;;;;6192813;28;20050;-95
2023/11/05 23:08:39;;;;;;;4.80;3.28;;;;;;;;;;6188540;28;20050;-96
2023/11/05 23:11:42;;;;;;;43.42;22.15;;;;;;;;;;6198323;28;20043;-96
2023/11/05 23:14:44;;;;;;;8.98;5.43;;;;;;;;;;6196258;28;20149;-96
2023/11/05 23:17:48;;;;;;;4.40;3.38;;;;;;;;;;6200755;28;20056;-96
2023/11/05 23:28:20;;;;;;;5.72;3.70;;;;;;;;;;6198878;28;20050;-96
2023/11/05 23:31:23;;;;;;;5.15;3.35;;;;;;;;;;6205389;28;20122;-96
2023/11/05 23:34:25;;;;;;;7.18;3.45;;;;;;;;;;6203526;28;20073;-96
2023/11/05 23:37:38;;;;;;;5.38;3.92;;;;;;;;;;6208850;28;20105;-96
2023/11/05 23:40:43;;;;;;;5.60;4.10;;;;;;;;;;6199578;28;20281;-96
2023/11/05 23:43:48;;;;;;;5.90;3.33;;;;;;;;;;6219835;28;20114;-96
2023/11/05 23:46:51;;;;;;;6.18;3.35;;;;;;;;;;6209509;28;20121;-96
2023/11/05 23:49:54;;;;;;;3.80;2.88;;;;;;;;;;6200731;28;20069;-96
2023/11/05 23:56:16;;;;;;;5.35;2.90;;;;;;;;;;6174947;28;20049;-96
2023/11/05 23:59:18;;;;;;;5.00;3.53;;;;;;;;;;6181013;28;20061;-96
